Climatologie pour Saint-Brevin les Pins
Jour • Résumé pour février 16, 2017 Système :  Métrique    Anglais   Mixte
« - 1 jour
+ 1 jour »
Jour Semaine Mois Année Personnalisé
  Maximum : Minimum : Moyenne :
Température sous abri : -17.8 °C -14.9 °C -12.9 °C
Point de rosée : -17.8 °C -15.1 °C -13.8 °C
Humidité : Humidity % 60 % 90 %
Vitesse du vent : 0 km/h 0 km/h 1.6 km/h
Rafale : 0 km/h - -
Direction :- - South
Pression : 0 hPa 34875.8 hPa -
Précipitations : 0 mm    
Historical Graphs
 
 
Tableau de données pour février 16, 2017
Heure Tempé Pt rosée Pression Vent Vitesse Rafale Humidité Taux pluie (/hr) Soleil
-17.8 °C -17.8 °C 0 hPa Calm     Humidity % 0 mm SolarRadiationWatts/m^2 W/m2 Conditions
00:00 -14.3 °C -14.4 °C 34933.4 hPa Calm   2.6 km/h 98 % 0 mm 0 W/m2
00:05 -14.3 °C -14.5 °C 34923.2 hPa Calm   2.6 km/h 98 % 0 mm 0 W/m2
00:10 -14.4 °C -14.6 °C 34933.4 hPa Calm   2.6 km/h 98 % 0 mm 0 W/m2
00:15 -14.4 °C -14.6 °C 34933.4 hPa Calm   2.6 km/h 98 % 0 mm 0 W/m2
00:20 -14.4 °C -14.6 °C 34933.4 hPa Calm   2.6 km/h 98 % 0 mm 0 W/m2
00:30 -14.7 °C -14.9 °C 34933.4 hPa Calm     98 % 0 mm 0 W/m2
00:40 -14.5 °C -14.6 °C 34933.4 hPa Calm     98 % 0 mm 0 W/m2
00:45 -14.7 °C -14.8 °C 34933.4 hPa Calm     98 % 0 mm 0 W/m2
00:50 -14.7 °C -14.9 °C 34933.4 hPa Calm     98 % 0 mm 0 W/m2
00:55 -14.8 °C -15 °C 34933.4 hPa Calm     98 % 0 mm 0 W/m2
01:00 -14.9 °C -15.1 °C 34933.4 hPa Calm     98 % 0 mm 0 W/m2
01:05 -14.9 °C -15.1 °C 34933.4 hPa Calm     98 % 0 mm 0 W/m2
01:10 -14.9 °C -15.1 °C 34933.4 hPa Calm     98 % 0 mm 0 W/m2
01:15 -14.9 °C -15.1 °C 34946.9 hPa Calm     98 % 0 mm 0 W/m2
01:20 -14.8 °C -14.9 °C 34946.9 hPa Calm     98 % 0 mm 0 W/m2
01:30 -14.8 °C -15 °C 34933.4 hPa Calm     98 % 0 mm 0 W/m2
01:40 -14.6 °C -14.8 °C 34933.4 hPa Calm     98 % 0 mm 0 W/m2
01:50 -14.6 °C -14.7 °C 34933.4 hPa Calm     98 % 0 mm 0 W/m2
01:55 -14.6 °C -14.7 °C 34933.4 hPa Calm     98 % 0 mm 0 W/m2
02:00 -14.6 °C -14.8 °C 34933.4 hPa Calm     98 % 0 mm 0 W/m2
02:10 -14.6 °C -14.7 °C 34933.4 hPa Calm     98 % 0 mm 0 W/m2
02:15 -14.5 °C -14.6 °C 34933.4 hPa Calm     98 % 0 mm 0 W/m2
02:20 -14.4 °C -14.6 °C 34933.4 hPa SSE 5.1 km/h 10.3 km/h 98 % 0 mm 0 W/m2
02:25 -14.4 °C -14.6 °C 34933.4 hPa SSE 2.6 km/h 10.3 km/h 98 % 0 mm 0 W/m2
02:30 -14.3 °C -14.4 °C 34933.4 hPa Calm   10.3 km/h 98 % 0 mm 0 W/m2
02:40 -14.3 °C -14.4 °C 34933.4 hPa Calm   2.6 km/h 98 % 0 mm 0 W/m2
02:45 -14.3 °C -14.5 °C 34933.4 hPa Calm     98 % 0 mm 0 W/m2
02:55 -14.3 °C -14.5 °C 34933.4 hPa Calm     98 % 0 mm 0 W/m2
03:00 -14.3 °C -14.4 °C 34933.4 hPa Calm     98 % 0 mm 0 W/m2
03:10 -14.3 °C -14.4 °C 34933.4 hPa Calm   2.6 km/h 98 % 0 mm 0 W/m2
03:15 -14.3 °C -14.5 °C 34933.4 hPa Calm     98 % 0 mm 0 W/m2
03:20 -14.3 °C -14.4 °C 34933.4 hPa Calm   2.6 km/h 98 % 0 mm 0 W/m2
03:30 -14.2 °C -14.3 °C 34933.4 hPa Calm     98 % 0 mm 0 W/m2
03:40 -14.2 °C -14.3 °C 34933.4 hPa Calm     98 % 0 mm 0 W/m2
03:45 -14.2 °C -14.4 °C 34933.4 hPa Calm     98 % 0 mm 0 W/m2
03:50 -14.2 °C -14.3 °C 34933.4 hPa Calm     98 % 0 mm 0 W/m2
04:00 -14.2 °C -14.4 °C 34933.4 hPa Calm     98 % 0 mm 0 W/m2
04:05 -14.2 °C -14.3 °C 34933.4 hPa Calm     98 % 0 mm 0 W/m2
04:10 -14.2 °C -14.3 °C 34933.4 hPa Calm     98 % 0 mm 0 W/m2
04:20 -14.1 °C -14.3 °C 34933.4 hPa Calm     98 % 0 mm 0 W/m2
04:25 -14.1 °C -14.3 °C 34933.4 hPa Calm     98 % 0 mm 0 W/m2
04:30 -14.1 °C -14.3 °C 34933.4 hPa Calm     98 % 0 mm 0 W/m2
04:35 -14.1 °C -14.2 °C 34933.4 hPa Calm     98 % 0 mm 0 W/m2
04:40 -14.1 °C -14.2 °C 34923.2 hPa Calm     98 % 0 mm 0 W/m2
04:50 -13.8 °C -14 °C 34923.2 hPa Calm     98 % 0 mm 0 W/m2
05:00 -13.8 °C -13.9 °C 34933.4 hPa Calm     99 % 0 mm 0 W/m2
05:10 -13.8 °C -13.9 °C 34933.4 hPa Calm     99 % 0 mm 0 W/m2
05:15 -13.8 °C -13.9 °C 34933.4 hPa Calm     98 % 0 mm 0 W/m2
05:25 -13.7 °C -13.8 °C 34923.2 hPa Calm   2.6 km/h 99 % 0 mm 0 W/m2
05:30 -13.8 °C -13.9 °C 34923.2 hPa Calm   2.6 km/h 98 % 0 mm 0 W/m2
05:40 -13.9 °C -14.1 °C 34923.2 hPa Calm     98 % 0 mm 0 W/m2
05:45 -13.9 °C -14.1 °C 34933.4 hPa Calm     98 % 0 mm 0 W/m2
05:50 -13.9 °C -14.1 °C 34933.4 hPa Calm     98 % 0 mm 0 W/m2
05:55 -13.9 °C -14.1 °C 34933.4 hPa Calm     98 % 0 mm 0 W/m2
06:00 -13.9 °C -14.1 °C 34933.4 hPa Calm     98 % 0 mm 0 W/m2
06:10 -14.1 °C -14.3 °C 34933.4 hPa SSE 2.6 km/h 5.1 km/h 98 % 0 mm 0 W/m2
06:15 -14.1 °C -14.3 °C 34933.4 hPa Calm   5.1 km/h 98 % 0 mm 0 W/m2
06:25 -13.8 °C -13.9 °C 34923.2 hPa Calm     99 % 0 mm 0 W/m2
06:35 -13.9 °C -14.1 °C 34923.2 hPa Calm   2.6 km/h 99 % 0 mm 0 W/m2
06:40 -14.1 °C -14.2 °C 34923.2 hPa SSE 2.6 km/h 2.6 km/h 98 % 0 mm 0 W/m2
06:45 -14.2 °C -14.3 °C 34923.2 hPa Calm   5.1 km/h 98 % 0 mm 0 W/m2
06:50 -14.2 °C -14.3 °C 34923.2 hPa Calm   5.1 km/h 98 % 0 mm 0 W/m2
06:55 -14.1 °C -14.2 °C 34923.2 hPa Calm   5.1 km/h 98 % 0 mm 0 W/m2
07:00 -14.1 °C -14.2 °C 34923.2 hPa Calm   7.7 km/h 99 % 0 mm 0 W/m2
07:10 -14 °C -14.1 °C 34923.2 hPa Calm   5.1 km/h 99 % 0 mm 0 W/m2
07:15 -14.2 °C -14.2 °C 34923.2 hPa Calm   2.6 km/h 99 % 0 mm 0 W/m2
07:20 -14.2 °C -14.3 °C 34923.2 hPa Calm   2.6 km/h 98 % 0 mm 0 W/m2
07:25 -14.3 °C -14.5 °C 34923.2 hPa Calm   2.6 km/h 98 % 0 mm 0 W/m2
07:30 -14.4 °C -14.6 °C 34923.2 hPa Calm   2.6 km/h 98 % 0 mm 0 W/m2
07:40 -14.5 °C -14.6 °C 34923.2 hPa Calm     98 % 0 mm 0 W/m2
07:45 -14.6 °C -14.7 °C 34923.2 hPa Calm     98 % 0 mm 0 W/m2
07:55 -14.3 °C -14.5 °C 34923.2 hPa Calm     98 % 0 mm 0 W/m2
08:00 -14.4 °C -14.5 °C 34923.2 hPa Calm     99 % 0 mm 0 W/m2
08:10 -14.2 °C -14.2 °C 34923.2 hPa Calm   2.6 km/h 99 % 0 mm 0 W/m2
08:15 -14.2 °C -14.3 °C 34923.2 hPa Calm     99 % 0 mm 0 W/m2
08:20 -14.3 °C -14.4 °C 34923.2 hPa Calm   2.6 km/h 99 % 0 mm 0 W/m2
08:35 -14.2 °C -14.3 °C 34933.4 hPa Calm     99 % 0 mm 0 W/m2
08:40 -14.1 °C -14.2 °C 34933.4 hPa Calm     99 % 0 mm 5 W/m2
08:45 -14.1 °C -14.1 °C 34933.4 hPa Calm     99 % 0 mm 7 W/m2
08:50 -14 °C -14.1 °C 34933.4 hPa Calm     99 % 0 mm 9 W/m2
09:00 -14.1 °C -14.1 °C 34933.4 hPa Calm     99 % 0 mm 44 W/m2
09:10 -13.8 °C -13.9 °C 34933.4 hPa Calm   2.6 km/h 99 % 0 mm 70 W/m2
09:15 -13.7 °C -13.7 °C 34933.4 hPa Calm   2.6 km/h 99 % 0 mm 79 W/m2
09:25 -13.4 °C -13.5 °C 34933.4 hPa Calm   7.7 km/h 99 % 0 mm 95 W/m2
09:35 -13.2 °C -13.3 °C 34933.4 hPa Calm   10.3 km/h 99 % 0 mm 104 W/m2
09:40 -13.1 °C -13.2 °C 34933.4 hPa ESE 2.6 km/h 7.7 km/h 99 % 0 mm 114 W/m2
09:45 -13 °C -13.1 °C 34933.4 hPa East 7.7 km/h 7.7 km/h 99 % 0 mm 121 W/m2
09:55 -12.7 °C -12.8 °C 34923.2 hPa Calm   12.9 km/h 99 % 0 mm 76 W/m2
10:00 -12.6 °C -12.7 °C 34923.2 hPa Calm   7.7 km/h 99 % 0 mm 72 W/m2
10:10 -12.4 °C -12.5 °C 34933.4 hPa Calm   12.9 km/h 99 % 0 mm 70 W/m2
10:15 -12.3 °C -12.5 °C 34933.4 hPa East 7.7 km/h 12.9 km/h 98 % 0 mm 58 W/m2
10:20 -12.3 °C -12.4 °C 34933.4 hPa Calm   7.7 km/h 98 % 0 mm 278 W/m2
10:25 -12.1 °C -12.3 °C 34933.4 hPa North 2.6 km/h 7.7 km/h 97 % 0 mm 283 W/m2
10:30 -11.9 °C -12.2 °C 34933.4 hPa East 5.1 km/h 7.7 km/h 97 % 0 mm 294 W/m2
10:35 -11.8 °C -12.2 °C 34933.4 hPa Calm   7.7 km/h 95 % 0 mm 301 W/m2
10:40 -11.7 °C -12.2 °C 34946.9 hPa East 2.6 km/h 5.1 km/h 94 % 0 mm 295 W/m2
10:45 -11.6 °C -12.3 °C 34946.9 hPa NW 5.1 km/h 15.6 km/h 92 % 0 mm 325 W/m2
10:50 -11.8 °C -12.4 °C 34946.9 hPa NW 2.6 km/h 15.6 km/h 92 % 0 mm 329 W/m2
10:55 -11.6 °C -12.3 °C 34946.9 hPa Calm   10.3 km/h 92 % 0 mm 345 W/m2
11:00 -11.6 °C -12.3 °C 34946.9 hPa NW 2.6 km/h 10.3 km/h 91 % 0 mm 359 W/m2
11:10 -11.2 °C -12.3 °C 34933.4 hPa Calm   5.1 km/h 88 % 0 mm 371 W/m2
11:15 -11.1 °C -12.2 °C 34933.4 hPa Calm   5.1 km/h 88 % 0 mm 302 W/m2
11:25 -10.7 °C -12.3 °C 34933.4 hPa Calm   7.7 km/h 83 % 0 mm 408 W/m2
11:30 -10.8 °C -12.6 °C 34933.4 hPa East 2.6 km/h 7.7 km/h 81 % 0 mm 410 W/m2
11:40 -10.6 °C -12.4 °C 34933.4 hPa East 2.6 km/h 5.1 km/h 80 % 0 mm 429 W/m2
11:45 -10.5 °C -12.2 °C 34933.4 hPa Calm   2.6 km/h 82 % 0 mm 439 W/m2
11:50 -10.3 °C -12 °C 34933.4 hPa NNE 2.6 km/h 5.1 km/h 82 % 0 mm 441 W/m2
11:55 -10.3 °C -12.1 °C 34933.4 hPa Calm   5.1 km/h 81 % 0 mm 448 W/m2
12:00 -10.4 °C -12.1 °C 34933.4 hPa Calm   5.1 km/h 82 % 0 mm 455 W/m2
12:10 -9.9 °C -12.1 °C 34933.4 hPa NE 2.6 km/h 12.9 km/h 77 % 0 mm 464 W/m2
12:20 -9.9 °C -12.1 °C 34933.4 hPa Calm   10.3 km/h 78 % 0 mm 480 W/m2
12:25 -9.9 °C -12 °C 34933.4 hPa Calm   10.3 km/h 78 % 0 mm 499 W/m2
12:30 -9.8 °C -11.8 °C 34933.4 hPa NNE 5.1 km/h 10.3 km/h 79 % 0 mm 480 W/m2
12:40 -9.7 °C -12.2 °C 34923.2 hPa NNW 5.1 km/h 10.3 km/h 74 % 0 mm 492 W/m2
12:50 -9.6 °C -12.1 °C 34923.2 hPa NNW 7.7 km/h 10.3 km/h 75 % 0 mm 490 W/m2
12:55 -9.4 °C -12.7 °C 34923.2 hPa NNE 5.1 km/h 15.6 km/h 68 % 0 mm 510 W/m2
13:00 -9.2 °C -12.1 °C 34923.2 hPa ENE 2.6 km/h 15.6 km/h 71 % 0 mm 564 W/m2
13:10 -9.1 °C -12.1 °C 34909.7 hPa NNW 2.6 km/h 12.9 km/h 70 % 0 mm 520 W/m2
13:15 -9.1 °C -12.4 °C 34909.7 hPa Calm   15.6 km/h 67 % 0 mm 504 W/m2
13:25 -9.1 °C -12.3 °C 34909.7 hPa Calm   18.2 km/h 68 % 0 mm 494 W/m2
13:30 -9.1 °C -13 °C 34909.7 hPa NE 5.1 km/h 12.9 km/h 63 % 0 mm 497 W/m2
13:40 -9 °C -12.8 °C 34899.5 hPa NE 2.6 km/h 18.2 km/h 64 % 0 mm 496 W/m2
13:45 -8.9 °C -13.2 °C 34899.5 hPa North 12.9 km/h 18.2 km/h 60 % 0 mm 492 W/m2
13:50 -9.1 °C -13.4 °C 34899.5 hPa ENE 2.6 km/h 12.9 km/h 60 % 0 mm 490 W/m2
13:55 -9.3 °C -13.2 °C 34899.5 hPa East 5.1 km/h 12.9 km/h 63 % 0 mm 490 W/m2
14:00 -9.2 °C -13.3 °C 34899.5 hPa ENE 5.1 km/h 18.2 km/h 61 % 0 mm 487 W/m2
14:10 -9.2 °C -13.2 °C 34899.5 hPa East 7.7 km/h 12.9 km/h 62 % 0 mm 482 W/m2
14:15 -9.1 °C -13 °C 34889.3 hPa SE 7.7 km/h 12.9 km/h 63 % 0 mm 462 W/m2
14:35 -9.1 °C -12.7 °C 34889.3 hPa ENE 7.7 km/h 12.9 km/h 65 % 0 mm 454 W/m2
14:40 -9.1 °C -12.6 °C 34889.3 hPa ENE 2.6 km/h 12.9 km/h 66 % 0 mm 446 W/m2
14:50 -9.3 °C -12.3 °C 34875.8 hPa West 12.9 km/h 12.9 km/h 70 % 0 mm 432 W/m2
15:00 -9.8 °C -12.7 °C 34875.8 hPa WNW 7.7 km/h 18.2 km/h 71 % 0 mm 415 W/m2
15:10 -10.1 °C -12.8 °C 34875.8 hPa West 2.6 km/h 15.6 km/h 72 % 0 mm 404 W/m2
15:15 -9.9 °C -12.5 °C 34875.8 hPa West 5.1 km/h 15.6 km/h 74 % 0 mm 396 W/m2
15:25 -10.1 °C -12.6 °C 34875.8 hPa WNW 2.6 km/h 12.9 km/h 74 % 0 mm 380 W/m2
15:30 -10.3 °C -12.8 °C 34875.8 hPa West 10.3 km/h 18.2 km/h 75 % 0 mm 371 W/m2
15:40 -10.4 °C -12.6 °C 34875.8 hPa West 7.7 km/h 18.2 km/h 78 % 0 mm 352 W/m2
15:45 -10.6 °C -12.7 °C 34875.8 hPa WSW 7.7 km/h 18.2 km/h 78 % 0 mm 343 W/m2
15:55 -10.7 °C -12.8 °C 34875.8 hPa WSW 12.9 km/h 18.2 km/h 77 % 0 mm 323 W/m2
16:00 -10.7 °C -12.9 °C 34875.8 hPa WSW 10.3 km/h 18.2 km/h 76 % 0 mm 313 W/m2
16:10 -10.4 °C -13 °C 34875.8 hPa West 15.6 km/h 18.2 km/h 74 % 0 mm 272 W/m2
16:15 -10.6 °C -12.9 °C 34875.8 hPa WSW 7.7 km/h 15.6 km/h 75 % 0 mm 283 W/m2
16:25 -10.5 °C -13 °C 34875.8 hPa West 10.3 km/h 15.6 km/h 74 % 0 mm 267 W/m2
16:30 -10.7 °C -13.2 °C 34875.8 hPa West 7.7 km/h 15.6 km/h 74 % 0 mm 258 W/m2
16:40 -10.7 °C -12.9 °C 34875.8 hPa West 10.3 km/h 20.8 km/h 76 % 0 mm 165 W/m2
16:45 -10.7 °C -12.9 °C 34875.8 hPa West 5.1 km/h 15.6 km/h 77 % 0 mm 241 W/m2
16:55 -10.4 °C -12.8 °C 34875.8 hPa West 10.3 km/h 12.9 km/h 75 % 0 mm 95 W/m2
17:00 -10.6 °C -12.9 °C 34875.8 hPa West 5.1 km/h 15.6 km/h 75 % 0 mm 63 W/m2
17:10 -10.8 °C -13 °C 34875.8 hPa SW 2.6 km/h 12.9 km/h 77 % 0 mm 77 W/m2
17:15 -11 °C -13.1 °C 34875.8 hPa WNW 7.7 km/h 12.9 km/h 78 % 0 mm 72 W/m2
17:25 -11.1 °C -13.1 °C 34875.8 hPa Calm   10.3 km/h 79 % 0 mm 65 W/m2
17:30 -11.1 °C -13.1 °C 34875.8 hPa Calm   10.3 km/h 79 % 0 mm 70 W/m2
17:40 -11.1 °C -13 °C 34875.8 hPa West 5.1 km/h 12.9 km/h 79 % 0 mm 62 W/m2
17:45 -11.1 °C -13 °C 34875.8 hPa West 2.6 km/h 12.9 km/h 79 % 0 mm 58 W/m2
17:50 -11.1 °C -13 °C 34875.8 hPa Calm   12.9 km/h 79 % 0 mm 53 W/m2
17:55 -11.1 °C -13 °C 34875.8 hPa Calm   10.3 km/h 79 % 0 mm 46 W/m2
18:05 -11.2 °C -13.1 °C 34875.8 hPa West 2.6 km/h 10.3 km/h 80 % 0 mm 30 W/m2
18:10 -11.3 °C -13.1 °C 34875.8 hPa Calm   10.3 km/h 81 % 0 mm 23 W/m2
18:15 -11.6 °C -13.1 °C 34875.8 hPa Calm   5.1 km/h 83 % 0 mm 18 W/m2
18:25 -12.1 °C -13.3 °C 34875.8 hPa Calm   2.6 km/h 86 % 0 mm 11 W/m2
18:30 -12.2 °C -13.4 °C 34875.8 hPa Calm   2.6 km/h 87 % 0 mm 7 W/m2
18:40 -12.6 °C -13.7 °C 34875.8 hPa Calm     88 % 0 mm 0 W/m2
18:45 -12.7 °C -13.7 °C 34875.8 hPa Calm     89 % 0 mm 0 W/m2
18:55 -12.9 °C -13.7 °C 34875.8 hPa Calm     91 % 0 mm 0 W/m2
19:00 -13 °C -13.8 °C 34875.8 hPa Calm     91 % 0 mm 0 W/m2
19:10 -13.1 °C -13.8 °C 34875.8 hPa Calm     92 % 0 mm 0 W/m2
19:20 -13.3 °C -13.9 °C 34875.8 hPa Calm     93 % 0 mm 0 W/m2
19:25 -13.5 °C -14.1 °C 34889.3 hPa Calm     93 % 0 mm 0 W/m2
19:30 -13.6 °C -14.2 °C 34889.3 hPa Calm     93 % 0 mm 0 W/m2
19:40 -13.8 °C -14.3 °C 34875.8 hPa Calm     93 % 0 mm 0 W/m2
19:50 -13.8 °C -14.3 °C 34889.3 hPa Calm     94 % 0 mm 0 W/m2
19:55 -13.7 °C -14.2 °C 34875.8 hPa Calm     95 % 0 mm 0 W/m2
20:05 -13.8 °C -14.3 °C 34875.8 hPa Calm     94 % 0 mm 0 W/m2
20:10 -13.9 °C -14.3 °C 34889.3 hPa Calm     95 % 0 mm 0 W/m2
20:15 -13.9 °C -14.3 °C 34889.3 hPa Calm     95 % 0 mm 0 W/m2
20:20 -13.9 °C -14.3 °C 34889.3 hPa Calm     95 % 0 mm 0 W/m2
20:35 -14 °C -14.4 °C 34889.3 hPa Calm     95 % 0 mm 0 W/m2
20:40 -14.1 °C -14.5 °C 34889.3 hPa Calm     95 % 0 mm 0 W/m2
20:45 -14.1 °C -14.5 °C 34889.3 hPa Calm     95 % 0 mm 0 W/m2
20:55 -13.9 °C -14.2 °C 34889.3 hPa Calm     96 % 0 mm 0 W/m2
21:00 -13.8 °C -14.2 °C 34889.3 hPa Calm     96 % 0 mm 0 W/m2
21:10 -14 °C -14.3 °C 34889.3 hPa Calm     96 % 0 mm 0 W/m2
21:15 -14.1 °C -14.5 °C 34889.3 hPa Calm     95 % 0 mm 0 W/m2
21:20 -14.2 °C -14.5 °C 34889.3 hPa Calm     96 % 0 mm 0 W/m2
21:30 -14.3 °C -14.6 °C 34889.3 hPa Calm     96 % 0 mm 0 W/m2
21:40 -14.3 °C -14.7 °C 34889.3 hPa Calm     96 % 0 mm 0 W/m2
21:50 -14.5 °C -14.8 °C 34889.3 hPa Calm     96 % 0 mm 0 W/m2
22:00 -14.3 °C -14.7 °C 34889.3 hPa Calm     96 % 0 mm 0 W/m2
22:10 -14.5 °C -14.8 °C 34899.5 hPa Calm     96 % 0 mm 0 W/m2
22:15 -14.6 °C -14.9 °C 34899.5 hPa Calm     96 % 0 mm 0 W/m2
22:25 -14.6 °C -14.9 °C 34889.3 hPa Calm     96 % 0 mm 0 W/m2
22:30 -14.5 °C -14.8 °C 34889.3 hPa Calm     97 % 0 mm 0 W/m2
22:40 -14.4 °C -14.6 °C 34889.3 hPa Calm     97 % 0 mm 0 W/m2
22:50 -14.4 °C -14.7 °C 34889.3 hPa Calm     97 % 0 mm 0 W/m2
22:55 -14.4 °C -14.7 °C 34889.3 hPa Calm     97 % 0 mm 0 W/m2
23:00 -14.4 °C -14.7 °C 34889.3 hPa Calm     97 % 0 mm 0 W/m2
23:10 -14.6 °C -14.9 °C 34889.3 hPa Calm     96 % 0 mm 0 W/m2
23:15 -14.6 °C -14.9 °C 34889.3 hPa Calm     96 % 0 mm 0 W/m2
23:20 -14.7 °C -15 °C 34889.3 hPa Calm     96 % 0 mm 0 W/m2
23:30 -14.8 °C -15.1 °C 34889.3 hPa Calm     96 % 0 mm 0 W/m2
23:40 -14.8 °C -15 °C 34889.3 hPa Calm     97 % 0 mm 0 W/m2
23:45 -14.8 °C -15.1 °C 34889.3 hPa Calm     97 % 0 mm 0 W/m2
23:50 -14.8 °C -15.1 °C 34889.3 hPa Calm     97 % 0 mm 0 W/m2
23:55 -14.9 °C -15.1 °C 34889.3 hPa Calm     97 % 0 mm 0 W/m2
Avec l'autorisation de Weather Underground - 1.5 mb